sensor_id;sensor_type;location;lat;lon;timestamp;temperature;humidity
6843;DHT22;3460;52.028;8.916;2023-04-01T00:01:39;9.50;99.90
6843;DHT22;3460;52.028;8.916;2023-04-01T00:04:06;9.40;99.90
6843;DHT22;3460;52.028;8.916;2023-04-01T00:06:34;9.40;99.90
6843;DHT22;3460;52.028;8.916;2023-04-01T00:09:01;9.40;99.90
6843;DHT22;3460;52.028;8.916;2023-04-01T00:11:28;9.40;99.90
6843;DHT22;3460;52.028;8.916;2023-04-01T00:13:55;9.40;99.90
6843;DHT22;3460;52.028;8.916;2023-04-01T00:16:21;9.40;99.90
6843;DHT22;3460;52.028;8.916;2023-04-01T00:18:49;9.40;99.90
6843;DHT22;3460;52.028;8.916;2023-04-01T00:21:16;9.30;99.90
6843;DHT22;3460;52.028;8.916;2023-04-01T00:23:44;9.40;99.90
6843;DHT22;3460;52.028;8.916;2023-04-01T00:26:11;9.40;99.90
6843;DHT22;3460;52.028;8.916;2023-04-01T00:28:40;9.40;99.90
6843;DHT22;3460;52.028;8.916;2023-04-01T00:31:08;9.40;99.90
6843;DHT22;3460;52.028;8.916;2023-04-01T00:33:35;9.40;99.90
6843;DHT22;3460;52.028;8.916;2023-04-01T00:36:09;9.40;99.90
6843;DHT22;3460;52.028;8.916;2023-04-01T00:38:37;9.40;99.90
6843;DHT22;3460;52.028;8.916;2023-04-01T00:41:05;9.40;99.90
6843;DHT22;3460;52.028;8.916;2023-04-01T00:43:33;9.50;99.90
6843;DHT22;3460;52.028;8.916;2023-04-01T00:46:00;9.50;99.90
6843;DHT22;3460;52.028;8.916;2023-04-01T00:48:28;9.50;99.90
6843;DHT22;3460;52.028;8.916;2023-04-01T00:50:59;9.50;99.90
6843;DHT22;3460;52.028;8.916;2023-04-01T00:53:28;9.50;99.90
6843;DHT22;3460;52.028;8.916;2023-04-01T00:56:00;9.50;99.90
6843;DHT22;3460;52.028;8.916;2023-04-01T00:58:33;9.50;99.90
6843;DHT22;3460;52.028;8.916;2023-04-01T01:01:01;9.40;99.90
6843;DHT22;3460;52.028;8.916;2023-04-01T01:03:28;9.40;99.90
6843;DHT22;3460;52.028;8.916;2023-04-01T01:06:20;9.40;99.90
6843;DHT22;3460;52.028;8.916;2023-04-01T01:09:06;9.40;99.90
6843;DHT22;3460;52.028;8.916;2023-04-01T01:11:37;9.40;99.90
6843;DHT22;3460;52.028;8.916;2023-04-01T01:14:14;9.40;99.90
6843;DHT22;3460;52.028;8.916;2023-04-01T01:16:47;9.40;99.90
6843;DHT22;3460;52.028;8.916;2023-04-01T01:19:43;9.40;99.90
6843;DHT22;3460;52.028;8.916;2023-04-01T01:22:36;9.40;99.90
6843;DHT22;3460;52.028;8.916;2023-04-01T01:25:18;9.40;99.90
6843;DHT22;3460;52.028;8.916;2023-04-01T01:27:58;9.40;99.90
6843;DHT22;3460;52.028;8.916;2023-04-01T01:30:41;9.40;99.90
6843;DHT22;3460;52.028;8.916;2023-04-01T01:33:30;9.40;99.90
6843;DHT22;3460;52.028;8.916;2023-04-01T01:36:04;9.40;99.90
6843;DHT22;3460;52.028;8.916;2023-04-01T01:38:34;9.40;99.90
6843;DHT22;3460;52.028;8.916;2023-04-01T01:41:02;9.30;99.90
6843;DHT22;3460;52.028;8.916;2023-04-01T01:43:33;9.40;99.90
6843;DHT22;3460;52.028;8.916;2023-04-01T01:46:04;9.40;99.90
6843;DHT22;3460;52.028;8.916;2023-04-01T01:48:34;9.30;99.90
6843;DHT22;3460;52.028;8.916;2023-04-01T01:51:05;9.40;99.90
6843;DHT22;3460;52.028;8.916;2023-04-01T01:53:32;9.30;99.90
6843;DHT22;3460;52.028;8.916;2023-04-01T01:55:59;9.30;99.90
6843;DHT22;3460;52.028;8.916;2023-04-01T01:58:29;9.30;99.90
6843;DHT22;3460;52.028;8.916;2023-04-01T02:00:59;9.30;99.90
6843;DHT22;3460;52.028;8.916;2023-04-01T02:03:30;9.30;99.90
6843;DHT22;3460;52.028;8.916;2023-04-01T02:05:59;9.30;99.90
6843;DHT22;3460;52.028;8.916;2023-04-01T02:08:33;9.20;99.90
6843;DHT22;3460;52.028;8.916;2023-04-01T02:11:03;9.20;99.90
6843;DHT22;3460;52.028;8.916;2023-04-01T02:13:35;9.20;99.90
6843;DHT22;3460;52.028;8.916;2023-04-01T02:16:08;9.30;99.90
6843;DHT22;3460;52.028;8.916;2023-04-01T02:18:36;9.30;99.90
6843;DHT22;3460;52.028;8.916;2023-04-01T02:21:05;9.30;99.90
6843;DHT22;3460;52.028;8.916;2023-04-01T02:23:35;9.20;99.90
6843;DHT22;3460;52.028;8.916;2023-04-01T02:26:05;9.20;99.90
6843;DHT22;3460;52.028;8.916;2023-04-01T02:28:33;9.30;99.90
6843;DHT22;3460;52.028;8.916;2023-04-01T02:31:02;9.20;99.90
6843;DHT22;3460;52.028;8.916;2023-04-01T02:33:30;9.20;99.90
6843;DHT22;3460;52.028;8.916;2023-04-01T02:35:57;9.20;99.90
6843;DHT22;3460;52.028;8.916;2023-04-01T02:38:24;9.20;99.90
6843;DHT22;3460;52.028;8.916;2023-04-01T02:40:57;9.30;99.90
6843;DHT22;3460;52.028;8.916;2023-04-01T02:43:24;9.20;99.90
6843;DHT22;3460;52.028;8.916;2023-04-01T02:45:51;9.20;99.90
6843;DHT22;3460;52.028;8.916;2023-04-01T02:48:18;9.20;99.90
6843;DHT22;3460;52.028;8.916;2023-04-01T02:50:45;9.20;99.90
6843;DHT22;3460;52.028;8.916;2023-04-01T02:53:12;9.20;99.90
6843;DHT22;3460;52.028;8.916;2023-04-01T02:55:38;9.20;99.90
6843;DHT22;3460;52.028;8.916;2023-04-01T02:58:07;9.20;99.90
6843;DHT22;3460;52.028;8.916;2023-04-01T03:00:33;9.20;99.90
6843;DHT22;3460;52.028;8.916;2023-04-01T03:03:00;9.30;99.90
6843;DHT22;3460;52.028;8.916;2023-04-01T03:05:28;9.20;99.90
6843;DHT22;3460;52.028;8.916;2023-04-01T03:07:55;9.20;99.90
6843;DHT22;3460;52.028;8.916;2023-04-01T03:10:22;9.20;99.90
6843;DHT22;3460;52.028;8.916;2023-04-01T03:12:49;9.20;99.90
6843;DHT22;3460;52.028;8.916;2023-04-01T03:15:17;9.20;99.90
6843;DHT22;3460;52.028;8.916;2023-04-01T03:17:44;9.20;99.90
6843;DHT22;3460;52.028;8.916;2023-04-01T03:20:12;9.20;99.90
6843;DHT22;3460;52.028;8.916;2023-04-01T03:22:40;9.20;99.90
6843;DHT22;3460;52.028;8.916;2023-04-01T03:25:08;9.20;99.90
6843;DHT22;3460;52.028;8.916;2023-04-01T03:27:35;9.20;99.90
6843;DHT22;3460;52.028;8.916;2023-04-01T03:30:02;9.20;99.90
6843;DHT22;3460;52.028;8.916;2023-04-01T03:32:30;9.20;99.90
6843;DHT22;3460;52.028;8.916;2023-04-01T03:34:57;9.20;99.90
6843;DHT22;3460;52.028;8.916;2023-04-01T03:37:24;9.10;99.90
6843;DHT22;3460;52.028;8.916;2023-04-01T03:39:51;9.10;99.90
6843;DHT22;3460;52.028;8.916;2023-04-01T03:42:18;9.20;99.90
6843;DHT22;3460;52.028;8.916;2023-04-01T03:44:45;9.20;99.90
6843;DHT22;3460;52.028;8.916;2023-04-01T03:47:12;9.20;99.90
6843;DHT22;3460;52.028;8.916;2023-04-01T03:49:40;9.30;99.90
6843;DHT22;3460;52.028;8.916;2023-04-01T03:52:09;9.20;99.90
6843;DHT22;3460;52.028;8.916;2023-04-01T03:54:36;9.20;99.90
6843;DHT22;3460;52.028;8.916;2023-04-01T03:57:03;9.20;99.90
6843;DHT22;3460;52.028;8.916;2023-04-01T03:59:29;9.20;99.90
6843;DHT22;3460;52.028;8.916;2023-04-01T04:01:56;9.20;99.90
6843;DHT22;3460;52.028;8.916;2023-04-01T04:04:23;9.10;99.90
6843;DHT22;3460;52.028;8.916;2023-04-01T04:06:51;9.10;99.90
6843;DHT22;3460;52.028;8.916;2023-04-01T04:09:18;9.10;99.90
6843;DHT22;3460;52.028;8.916;2023-04-01T04:11:45;9.10;99.90
6843;DHT22;3460;52.028;8.916;2023-04-01T04:14:11;9.10;99.90
6843;DHT22;3460;52.028;8.916;2023-04-01T04:16:38;9.10;99.90
6843;DHT22;3460;52.028;8.916;2023-04-01T04:19:05;9.10;99.90
6843;DHT22;3460;52.028;8.916;2023-04-01T04:21:32;9.10;99.90
6843;DHT22;3460;52.028;8.916;2023-04-01T04:24:01;9.10;99.90
6843;DHT22;3460;52.028;8.916;2023-04-01T04:26:28;9.20;99.90
6843;DHT22;3460;52.028;8.916;2023-04-01T04:28:55;9.10;99.90
6843;DHT22;3460;52.028;8.916;2023-04-01T04:31:23;9.10;99.90
6843;DHT22;3460;52.028;8.916;2023-04-01T04:33:50;9.10;99.90
6843;DHT22;3460;52.028;8.916;2023-04-01T04:36:18;9.10;99.90
6843;DHT22;3460;52.028;8.916;2023-04-01T04:38:45;9.00;99.90
6843;DHT22;3460;52.028;8.916;2023-04-01T04:41:15;9.00;99.90
6843;DHT22;3460;52.028;8.916;2023-04-01T04:43:49;9.00;99.90
6843;DHT22;3460;52.028;8.916;2023-04-01T04:46:17;9.00;99.90
6843;DHT22;3460;52.028;8.916;2023-04-01T04:48:43;9.10;99.90
6843;DHT22;3460;52.028;8.916;2023-04-01T04:51:13;9.10;99.90
6843;DHT22;3460;52.028;8.916;2023-04-01T04:53:41;9.10;99.90
6843;DHT22;3460;52.028;8.916;2023-04-01T04:56:08;9.20;99.90
6843;DHT22;3460;52.028;8.916;2023-04-01T04:58:36;9.10;99.90
6843;DHT22;3460;52.028;8.916;2023-04-01T05:01:08;9.20;99.90
6843;DHT22;3460;52.028;8.916;2023-04-01T05:03:36;9.20;99.90
6843;DHT22;3460;52.028;8.916;2023-04-01T05:06:03;9.10;99.90
6843;DHT22;3460;52.028;8.916;2023-04-01T05:08:30;9.20;99.90
6843;DHT22;3460;52.028;8.916;2023-04-01T05:10:58;9.10;99.90
6843;DHT22;3460;52.028;8.916;2023-04-01T05:13:25;9.20;99.90
6843;DHT22;3460;52.028;8.916;2023-04-01T05:15:53;9.20;99.90
6843;DHT22;3460;52.028;8.916;2023-04-01T05:18:20;9.10;99.90
6843;DHT22;3460;52.028;8.916;2023-04-01T05:20:47;9.10;99.90
6843;DHT22;3460;52.028;8.916;2023-04-01T05:23:14;9.20;99.90
6843;DHT22;3460;52.028;8.916;2023-04-01T05:25:41;9.20;99.90
6843;DHT22;3460;52.028;8.916;2023-04-01T05:28:08;9.20;99.90
6843;DHT22;3460;52.028;8.916;2023-04-01T05:30:35;9.10;99.90
6843;DHT22;3460;52.028;8.916;2023-04-01T05:33:03;9.10;99.90
6843;DHT22;3460;52.028;8.916;2023-04-01T05:35:30;9.10;99.90
6843;DHT22;3460;52.028;8.916;2023-04-01T05:37:58;9.20;99.90
6843;DHT22;3460;52.028;8.916;2023-04-01T05:40:25;9.20;99.90
6843;DHT22;3460;52.028;8.916;2023-04-01T05:42:51;9.20;99.90
6843;DHT22;3460;52.028;8.916;2023-04-01T05:45:18;9.20;99.90
6843;DHT22;3460;52.028;8.916;2023-04-01T05:47:45;9.20;99.90
6843;DHT22;3460;52.028;8.916;2023-04-01T05:50:13;9.20;99.90
6843;DHT22;3460;52.028;8.916;2023-04-01T05:52:40;9.20;99.90
6843;DHT22;3460;52.028;8.916;2023-04-01T05:55:08;9.20;99.90
6843;DHT22;3460;52.028;8.916;2023-04-01T05:57:35;9.20;99.90
6843;DHT22;3460;52.028;8.916;2023-04-01T06:00:03;9.30;99.90
6843;DHT22;3460;52.028;8.916;2023-04-01T06:02:30;9.20;99.90
6843;DHT22;3460;52.028;8.916;2023-04-01T06:05:03;9.20;99.90
6843;DHT22;3460;52.028;8.916;2023-04-01T06:07:38;9.20;99.90
6843;DHT22;3460;52.028;8.916;2023-04-01T06:10:12;9.20;99.90
6843;DHT22;3460;52.028;8.916;2023-04-01T06:12:54;9.20;99.90
6843;DHT22;3460;52.028;8.916;2023-04-01T06:15:29;9.20;99.90
6843;DHT22;3460;52.028;8.916;2023-04-01T06:18:29;9.10;99.90
6843;DHT22;3460;52.028;8.916;2023-04-01T06:21:07;9.10;99.90
6843;DHT22;3460;52.028;8.916;2023-04-01T06:23:48;9.10;99.90
6843;DHT22;3460;52.028;8.916;2023-04-01T06:26:25;9.10;99.90
6843;DHT22;3460;52.028;8.916;2023-04-01T06:29:22;9.10;99.90
6843;DHT22;3460;52.028;8.916;2023-04-01T06:32:15;9.10;99.90
6843;DHT22;3460;52.028;8.916;2023-04-01T06:34:58;9.10;99.90
6843;DHT22;3460;52.028;8.916;2023-04-01T06:37:56;9.10;99.90
6843;DHT22;3460;52.028;8.916;2023-04-01T06:40:43;9.20;99.90
6843;DHT22;3460;52.028;8.916;2023-04-01T06:43:18;9.20;99.90
6843;DHT22;3460;52.028;8.916;2023-04-01T06:45:53;9.20;99.90
6843;DHT22;3460;52.028;8.916;2023-04-01T06:48:34;9.20;99.90
6843;DHT22;3460;52.028;8.916;2023-04-01T06:51:11;9.20;99.90
6843;DHT22;3460;52.028;8.916;2023-04-01T06:53:46;9.20;99.90
6843;DHT22;3460;52.028;8.916;2023-04-01T06:56:21;9.30;99.90
6843;DHT22;3460;52.028;8.916;2023-04-01T06:58:52;9.30;99.90
6843;DHT22;3460;52.028;8.916;2023-04-01T07:01:23;9.30;99.90
6843;DHT22;3460;52.028;8.916;2023-04-01T07:03:54;9.30;99.90
6843;DHT22;3460;52.028;8.916;2023-04-01T07:06:27;9.20;99.90
6843;DHT22;3460;52.028;8.916;2023-04-01T07:08:56;9.20;99.90
6843;DHT22;3460;52.028;8.916;2023-04-01T07:11:29;9.30;99.90
6843;DHT22;3460;52.028;8.916;2023-04-01T07:14:01;9.40;99.90
6843;DHT22;3460;52.028;8.916;2023-04-01T07:16:32;9.30;99.90
6843;DHT22;3460;52.028;8.916;2023-04-01T07:19:03;9.30;99.90
6843;DHT22;3460;52.028;8.916;2023-04-01T07:21:36;9.30;99.90
6843;DHT22;3460;52.028;8.916;2023-04-01T07:24:11;9.30;99.90
6843;DHT22;3460;52.028;8.916;2023-04-01T07:26:42;9.50;99.90
6843;DHT22;3460;52.028;8.916;2023-04-01T07:29:11;9.50;99.90
6843;DHT22;3460;52.028;8.916;2023-04-01T07:31:58;9.40;99.90
6843;DHT22;3460;52.028;8.916;2023-04-01T07:34:30;9.30;99.90
6843;DHT22;3460;52.028;8.916;2023-04-01T07:37:02;9.30;99.90
6843;DHT22;3460;52.028;8.916;2023-04-01T07:39:37;9.30;99.90
6843;DHT22;3460;52.028;8.916;2023-04-01T07:42:15;9.30;99.90
6843;DHT22;3460;52.028;8.916;2023-04-01T07:44:51;9.40;99.90
6843;DHT22;3460;52.028;8.916;2023-04-01T07:47:40;9.50;99.90
6843;DHT22;3460;52.028;8.916;2023-04-01T07:50:19;9.60;99.90
6843;DHT22;3460;52.028;8.916;2023-04-01T07:52:57;9.60;99.90
6843;DHT22;3460;52.028;8.916;2023-04-01T07:55:30;9.70;99.90
6843;DHT22;3460;52.028;8.916;2023-04-01T07:58:06;9.80;99.90
6843;DHT22;3460;52.028;8.916;2023-04-01T08:00:39;9.80;99.90
6843;DHT22;3460;52.028;8.916;2023-04-01T08:03:19;9.80;99.90
6843;DHT22;3460;52.028;8.916;2023-04-01T08:05:54;9.80;99.90
6843;DHT22;3460;52.028;8.916;2023-04-01T08:08:32;9.80;99.90
6843;DHT22;3460;52.028;8.916;2023-04-01T08:11:09;9.80;99.90
6843;DHT22;3460;52.028;8.916;2023-04-01T08:13:44;9.90;99.90
6843;DHT22;3460;52.028;8.916;2023-04-01T08:16:17;9.80;99.90
6843;DHT22;3460;52.028;8.916;2023-04-01T08:18:53;9.80;99.90
6843;DHT22;3460;52.028;8.916;2023-04-01T08:21:24;9.80;99.90
6843;DHT22;3460;52.028;8.916;2023-04-01T08:23:52;9.90;99.90
6843;DHT22;3460;52.028;8.916;2023-04-01T08:26:28;9.80;99.90
6843;DHT22;3460;52.028;8.916;2023-04-01T08:29:01;9.80;99.90
6843;DHT22;3460;52.028;8.916;2023-04-01T08:31:33;9.80;99.90
6843;DHT22;3460;52.028;8.916;2023-04-01T08:34:04;9.80;99.90
6843;DHT22;3460;52.028;8.916;2023-04-01T08:36:35;9.80;99.90
6843;DHT22;3460;52.028;8.916;2023-04-01T08:39:06;9.80;99.90
6843;DHT22;3460;52.028;8.916;2023-04-01T08:42:13;9.80;99.90
6843;DHT22;3460;52.028;8.916;2023-04-01T08:45:09;9.90;99.90
6843;DHT22;3460;52.028;8.916;2023-04-01T08:47:56;9.90;99.90
6843;DHT22;3460;52.028;8.916;2023-04-01T08:50:47;10.00;99.90
6843;DHT22;3460;52.028;8.916;2023-04-01T08:53:21;10.00;99.90
6843;DHT22;3460;52.028;8.916;2023-04-01T08:56:03;10.10;99.90
6843;DHT22;3460;52.028;8.916;2023-04-01T08:58:43;10.30;99.90
6843;DHT22;3460;52.028;8.916;2023-04-01T09:01:32;10.20;99.90
6843;DHT22;3460;52.028;8.916;2023-04-01T09:04:23;10.20;99.90
6843;DHT22;3460;52.028;8.916;2023-04-01T09:07:04;10.20;99.90
6843;DHT22;3460;52.028;8.916;2023-04-01T09:09:56;10.30;99.90
6843;DHT22;3460;52.028;8.916;2023-04-01T09:12:39;10.30;99.90
6843;DHT22;3460;52.028;8.916;2023-04-01T09:15:40;10.30;99.90
6843;DHT22;3460;52.028;8.916;2023-04-01T09:18:28;10.30;99.90
6843;DHT22;3460;52.028;8.916;2023-04-01T09:24:12;10.30;99.90
6843;DHT22;3460;52.028;8.916;2023-04-01T09:27:05;10.30;99.90
6843;DHT22;3460;52.028;8.916;2023-04-01T09:29:53;10.40;99.90
6843;DHT22;3460;52.028;8.916;2023-04-01T09:32:33;10.50;99.90
6843;DHT22;3460;52.028;8.916;2023-04-01T09:35:21;10.50;99.90
6843;DHT22;3460;52.028;8.916;2023-04-01T09:37:54;10.60;99.90
6843;DHT22;3460;52.028;8.916;2023-04-01T09:40:35;10.50;99.90
6843;DHT22;3460;52.028;8.916;2023-04-01T09:43:23;10.60;99.90
6843;DHT22;3460;52.028;8.916;2023-04-01T09:46:04;10.70;99.90
6843;DHT22;3460;52.028;8.916;2023-04-01T09:48:59;10.70;99.90
6843;DHT22;3460;52.028;8.916;2023-04-01T09:51:37;10.70;99.90
6843;DHT22;3460;52.028;8.916;2023-04-01T09:54:17;10.70;99.90
6843;DHT22;3460;52.028;8.916;2023-04-01T10:00:20;10.70;99.90
6843;DHT22;3460;52.028;8.916;2023-04-01T10:03:08;10.80;99.90
6843;DHT22;3460;52.028;8.916;2023-04-01T10:06:12;10.80;99.90
6843;DHT22;3460;52.028;8.916;2023-04-01T10:18:36;10.80;99.90
6843;DHT22;3460;52.028;8.916;2023-04-01T10:21:29;10.90;99.90
6843;DHT22;3460;52.028;8.916;2023-04-01T10:24:31;11.00;99.90
6843;DHT22;3460;52.028;8.916;2023-04-01T10:27:10;11.20;99.90
6843;DHT22;3460;52.028;8.916;2023-04-01T10:30:05;11.30;99.90
6843;DHT22;3460;52.028;8.916;2023-04-01T10:39:03;11.60;99.90
6843;DHT22;3460;52.028;8.916;2023-04-01T10:41:53;11.70;99.90
6843;DHT22;3460;52.028;8.916;2023-04-01T10:47:53;11.80;99.90
6843;DHT22;3460;52.028;8.916;2023-04-01T10:50:42;11.90;99.90
6843;DHT22;3460;52.028;8.916;2023-04-01T10:53:37;11.90;99.90
6843;DHT22;3460;52.028;8.916;2023-04-01T10:56:29;12.00;99.90
6843;DHT22;3460;52.028;8.916;2023-04-01T10:59:27;12.10;99.90
6843;DHT22;3460;52.028;8.916;2023-04-01T11:02:30;12.10;99.90
6843;DHT22;3460;52.028;8.916;2023-04-01T11:11:36;12.00;99.90
6843;DHT22;3460;52.028;8.916;2023-04-01T11:14:31;12.10;99.90
6843;DHT22;3460;52.028;8.916;2023-04-01T11:20:24;12.40;99.90
6843;DHT22;3460;52.028;8.916;2023-04-01T11:23:12;12.50;99.90
6843;DHT22;3460;52.028;8.916;2023-04-01T11:26:03;12.50;99.90
6843;DHT22;3460;52.028;8.916;2023-04-01T11:28:54;12.50;99.90
6843;DHT22;3460;52.028;8.916;2023-04-01T11:31:39;12.40;99.90
6843;DHT22;3460;52.028;8.916;2023-04-01T11:34:20;12.40;99.90
6843;DHT22;3460;52.028;8.916;2023-04-01T11:36:56;12.60;99.90
6843;DHT22;3460;52.028;8.916;2023-04-01T11:39:33;12.60;99.90
6843;DHT22;3460;52.028;8.916;2023-04-01T11:42:14;12.50;99.90
6843;DHT22;3460;52.028;8.916;2023-04-01T11:44:48;12.60;99.90
6843;DHT22;3460;52.028;8.916;2023-04-01T11:47:27;12.60;99.90
6843;DHT22;3460;52.028;8.916;2023-04-01T11:50:15;12.40;99.90
6843;DHT22;3460;52.028;8.916;2023-04-01T11:55:56;12.30;99.90
6843;DHT22;3460;52.028;8.916;2023-04-01T11:58:44;12.40;99.90
6843;DHT22;3460;52.028;8.916;2023-04-01T12:01:33;12.30;99.90
6843;DHT22;3460;52.028;8.916;2023-04-01T12:07:14;12.10;99.90
6843;DHT22;3460;52.028;8.916;2023-04-01T12:09:49;12.10;99.90
6843;DHT22;3460;52.028;8.916;2023-04-01T12:12:29;12.10;99.90
6843;DHT22;3460;52.028;8.916;2023-04-01T12:15:10;12.20;99.90
6843;DHT22;3460;52.028;8.916;2023-04-01T12:17:43;12.10;99.90
6843;DHT22;3460;52.028;8.916;2023-04-01T12:20:29;12.10;99.90
6843;DHT22;3460;52.028;8.916;2023-04-01T12:23:07;12.00;99.90
6843;DHT22;3460;52.028;8.916;2023-04-01T12:26:02;12.10;99.90
6843;DHT22;3460;52.028;8.916;2023-04-01T12:28:41;12.00;99.90
6843;DHT22;3460;52.028;8.916;2023-04-01T12:31:24;12.00;99.90
6843;DHT22;3460;52.028;8.916;2023-04-01T12:34:13;11.70;99.90
6843;DHT22;3460;52.028;8.916;2023-04-01T12:36:56;11.60;99.90
6843;DHT22;3460;52.028;8.916;2023-04-01T12:39:37;11.50;99.90
6843;DHT22;3460;52.028;8.916;2023-04-01T12:42:16;11.50;99.90
6843;DHT22;3460;52.028;8.916;2023-04-01T12:45:03;11.50;99.90
6843;DHT22;3460;52.028;8.916;2023-04-01T12:48:01;11.50;99.90
6843;DHT22;3460;52.028;8.916;2023-04-01T12:53:39;11.40;99.90
6843;DHT22;3460;52.028;8.916;2023-04-01T12:56:14;11.50;99.90
6843;DHT22;3460;52.028;8.916;2023-04-01T12:59:03;11.50;99.90
6843;DHT22;3460;52.028;8.916;2023-04-01T13:01:52;11.40;99.90
6843;DHT22;3460;52.028;8.916;2023-04-01T13:04:54;11.50;99.90
6843;DHT22;3460;52.028;8.916;2023-04-01T13:10:25;11.40;99.90
6843;DHT22;3460;52.028;8.916;2023-04-01T13:13:23;11.40;99.90
6843;DHT22;3460;52.028;8.916;2023-04-01T13:15:52;11.50;99.90
6843;DHT22;3460;52.028;8.916;2023-04-01T13:18:30;11.50;99.90
6843;DHT22;3460;52.028;8.916;2023-04-01T13:21:05;11.50;99.90
6843;DHT22;3460;52.028;8.916;2023-04-01T13:23:49;11.50;99.90
6843;DHT22;3460;52.028;8.916;2023-04-01T13:26:22;11.60;99.90
6843;DHT22;3460;52.028;8.916;2023-04-01T13:28:56;11.60;99.90
6843;DHT22;3460;52.028;8.916;2023-04-01T13:31:34;11.50;99.90
6843;DHT22;3460;52.028;8.916;2023-04-01T13:34:15;11.60;99.90
6843;DHT22;3460;52.028;8.916;2023-04-01T13:36:53;11.50;99.90
6843;DHT22;3460;52.028;8.916;2023-04-01T13:39:36;11.50;99.90
6843;DHT22;3460;52.028;8.916;2023-04-01T13:42:13;11.50;99.90
6843;DHT22;3460;52.028;8.916;2023-04-01T13:44:46;11.60;99.90
6843;DHT22;3460;52.028;8.916;2023-04-01T13:50:49;11.60;99.90
6843;DHT22;3460;52.028;8.916;2023-04-01T13:56:23;11.70;99.90
6843;DHT22;3460;52.028;8.916;2023-04-01T14:01:53;11.70;99.90
6843;DHT22;3460;52.028;8.916;2023-04-01T14:04:39;11.70;99.90
6843;DHT22;3460;52.028;8.916;2023-04-01T14:07:18;11.60;99.90
6843;DHT22;3460;52.028;8.916;2023-04-01T14:10:05;11.60;99.90
6843;DHT22;3460;52.028;8.916;2023-04-01T14:12:38;11.60;99.90
6843;DHT22;3460;52.028;8.916;2023-04-01T14:15:41;11.50;99.90
6843;DHT22;3460;52.028;8.916;2023-04-01T14:18:37;11.50;99.90
6843;DHT22;3460;52.028;8.916;2023-04-01T14:21:24;11.50;99.90
6843;DHT22;3460;52.028;8.916;2023-04-01T14:24:22;11.60;99.90
6843;DHT22;3460;52.028;8.916;2023-04-01T14:27:09;11.50;99.90
6843;DHT22;3460;52.028;8.916;2023-04-01T14:29:46;11.20;99.90
6843;DHT22;3460;52.028;8.916;2023-04-01T14:32:21;11.00;99.90
6843;DHT22;3460;52.028;8.916;2023-04-01T14:35:05;10.90;99.90
6843;DHT22;3460;52.028;8.916;2023-04-01T14:40:58;10.60;99.90
6843;DHT22;3460;52.028;8.916;2023-04-01T14:43:50;10.60;99.90
6843;DHT22;3460;52.028;8.916;2023-04-01T14:46:41;10.50;99.90
6843;DHT22;3460;52.028;8.916;2023-04-01T14:49:19;10.40;99.90
6843;DHT22;3460;52.028;8.916;2023-04-01T14:51:48;10.40;99.90
6843;DHT22;3460;52.028;8.916;2023-04-01T14:54:18;10.30;99.90
6843;DHT22;3460;52.028;8.916;2023-04-01T14:56:50;10.30;99.90
6843;DHT22;3460;52.028;8.916;2023-04-01T14:59:27;10.40;99.90
6843;DHT22;3460;52.028;8.916;2023-04-01T15:02:00;10.40;99.90
6843;DHT22;3460;52.028;8.916;2023-04-01T15:04:41;10.30;99.90
6843;DHT22;3460;52.028;8.916;2023-04-01T15:10:34;10.40;99.90
6843;DHT22;3460;52.028;8.916;2023-04-01T15:13:13;10.40;99.90
6843;DHT22;3460;52.028;8.916;2023-04-01T15:15:51;10.40;99.90
6843;DHT22;3460;52.028;8.916;2023-04-01T15:18:28;10.40;99.90
6843;DHT22;3460;52.028;8.916;2023-04-01T15:21:15;10.30;99.90
6843;DHT22;3460;52.028;8.916;2023-04-01T15:23:53;10.30;99.90
6843;DHT22;3460;52.028;8.916;2023-04-01T15:26:47;10.50;99.90
6843;DHT22;3460;52.028;8.916;2023-04-01T15:29:29;10.40;99.90
6843;DHT22;3460;52.028;8.916;2023-04-01T15:32:03;10.30;99.90
6843;DHT22;3460;52.028;8.916;2023-04-01T15:34:42;10.40;99.90
6843;DHT22;3460;52.028;8.916;2023-04-01T15:37:17;10.40;99.90
6843;DHT22;3460;52.028;8.916;2023-04-01T15:39:54;10.40;99.90
6843;DHT22;3460;52.028;8.916;2023-04-01T15:42:35;10.40;99.90
6843;DHT22;3460;52.028;8.916;2023-04-01T15:45:17;10.40;99.90
6843;DHT22;3460;52.028;8.916;2023-04-01T15:47:47;10.40;99.90
6843;DHT22;3460;52.028;8.916;2023-04-01T15:50:46;10.30;99.90
6843;DHT22;3460;52.028;8.916;2023-04-01T15:56:16;10.30;99.90
6843;DHT22;3460;52.028;8.916;2023-04-01T15:58:54;10.40;99.90
6843;DHT22;3460;52.028;8.916;2023-04-01T16:01:38;10.30;99.90
6843;DHT22;3460;52.028;8.916;2023-04-01T16:04:22;10.40;99.90
6843;DHT22;3460;52.028;8.916;2023-04-01T16:07:03;10.50;99.90
6843;DHT22;3460;52.028;8.916;2023-04-01T16:09:48;10.40;99.90
6843;DHT22;3460;52.028;8.916;2023-04-01T16:12:22;10.40;99.90
6843;DHT22;3460;52.028;8.916;2023-04-01T16:15:06;10.40;99.90
6843;DHT22;3460;52.028;8.916;2023-04-01T16:17:48;10.40;99.90
6843;DHT22;3460;52.028;8.916;2023-04-01T16:20:22;10.30;99.90
6843;DHT22;3460;52.028;8.916;2023-04-01T16:22:57;10.30;99.90
6843;DHT22;3460;52.028;8.916;2023-04-01T16:25:32;10.30;99.90
6843;DHT22;3460;52.028;8.916;2023-04-01T16:28:12;10.30;99.90
6843;DHT22;3460;52.028;8.916;2023-04-01T16:30:44;10.30;99.90
6843;DHT22;3460;52.028;8.916;2023-04-01T16:33:20;10.30;99.90
6843;DHT22;3460;52.028;8.916;2023-04-01T16:35:54;10.30;99.90
6843;DHT22;3460;52.028;8.916;2023-04-01T16:38:30;10.30;99.90
6843;DHT22;3460;52.028;8.916;2023-04-01T16:41:09;10.30;99.90
6843;DHT22;3460;52.028;8.916;2023-04-01T16:43:40;10.30;99.90
6843;DHT22;3460;52.028;8.916;2023-04-01T16:46:32;10.30;99.90
6843;DHT22;3460;52.028;8.916;2023-04-01T16:49:13;10.30;99.90
6843;DHT22;3460;52.028;8.916;2023-04-01T16:51:46;10.30;99.90
6843;DHT22;3460;52.028;8.916;2023-04-01T16:54:26;10.30;99.90
6843;DHT22;3460;52.028;8.916;2023-04-01T16:56:56;10.30;99.90
6843;DHT22;3460;52.028;8.916;2023-04-01T16:59:26;10.30;99.90
6843;DHT22;3460;52.028;8.916;2023-04-01T17:02:02;10.30;99.90
6843;DHT22;3460;52.028;8.916;2023-04-01T17:04:36;10.30;99.90
6843;DHT22;3460;52.028;8.916;2023-04-01T17:07:15;10.30;99.90
6843;DHT22;3460;52.028;8.916;2023-04-01T17:09:53;10.10;99.90
6843;DHT22;3460;52.028;8.916;2023-04-01T17:12:29;10.00;99.90
6843;DHT22;3460;52.028;8.916;2023-04-01T17:15:04;9.80;99.90
6843;DHT22;3460;52.028;8.916;2023-04-01T17:17:44;9.80;99.90
6843;DHT22;3460;52.028;8.916;2023-04-01T17:20:31;9.50;99.90
6843;DHT22;3460;52.028;8.916;2023-04-01T17:23:03;9.50;99.90
6843;DHT22;3460;52.028;8.916;2023-04-01T17:28:27;9.20;99.90
6843;DHT22;3460;52.028;8.916;2023-04-01T17:31:04;9.10;99.90
6843;DHT22;3460;52.028;8.916;2023-04-01T17:33:45;9.00;99.90
6843;DHT22;3460;52.028;8.916;2023-04-01T17:36:25;8.90;99.90
6843;DHT22;3460;52.028;8.916;2023-04-01T17:39:04;8.90;99.90
6843;DHT22;3460;52.028;8.916;2023-04-01T17:41:40;8.80;99.90
6843;DHT22;3460;52.028;8.916;2023-04-01T17:44:18;8.80;99.90
6843;DHT22;3460;52.028;8.916;2023-04-01T17:47:08;8.70;99.90
6843;DHT22;3460;52.028;8.916;2023-04-01T17:49:41;8.60;99.90
6843;DHT22;3460;52.028;8.916;2023-04-01T17:52:19;8.50;99.90
6843;DHT22;3460;52.028;8.916;2023-04-01T17:54:53;8.50;99.90
6843;DHT22;3460;52.028;8.916;2023-04-01T17:57:39;8.40;99.90
6843;DHT22;3460;52.028;8.916;2023-04-01T18:00:23;8.40;99.90
6843;DHT22;3460;52.028;8.916;2023-04-01T18:03:00;8.40;99.90
6843;DHT22;3460;52.028;8.916;2023-04-01T18:05:36;8.40;99.90
6843;DHT22;3460;52.028;8.916;2023-04-01T18:08:20;8.40;99.90
6843;DHT22;3460;52.028;8.916;2023-04-01T18:11:00;8.30;99.90
6843;DHT22;3460;52.028;8.916;2023-04-01T18:13:50;8.30;99.90
6843;DHT22;3460;52.028;8.916;2023-04-01T18:16:29;8.20;99.90
6843;DHT22;3460;52.028;8.916;2023-04-01T18:19:05;8.20;99.90
6843;DHT22;3460;52.028;8.916;2023-04-01T18:21:43;8.20;99.90